Time;durP1;ratioP1;P1;durP2;ratioP2;P2;SDS_P1;SDS_P2;PMS_P1;PMS_P2;Temp;Humidity;BMP_temperature;BMP_pressure;BME280_temperature;BME280_humidity;BME280_pressure;Samples;Min_cycle;Max_cycle;Signal;HPM_P1;HPM_P2
2022/07/17 00:00:26;;;;;;;0.93;0.10;;;16.60;56.90;;;;;;5040165;28;20056;-77
2022/07/17 00:02:53;;;;;;;1.67;0.20;;;16.50;56.90;;;;;;5022604;28;20139;-77
2022/07/17 00:05:20;;;;;;;3.70;0.15;;;16.50;57.00;;;;;;5053071;28;20068;-77
2022/07/17 00:07:48;;;;;;;0.20;0.00;;;16.50;57.80;;;;;;5043473;28;20123;-77
2022/07/17 00:10:16;;;;;;;0.93;0.10;;;16.40;57.30;;;;;;5054212;28;20082;-77
2022/07/17 00:12:46;;;;;;;1.48;0.10;;;16.40;57.40;;;;;;5050724;28;20055;-77
2022/07/17 00:15:14;;;;;;;0.65;0.13;;;16.30;57.40;;;;;;5063158;28;20119;-77
2022/07/17 00:17:41;;;;;;;1.65;0.13;;;16.30;57.50;;;;;;5036794;28;20226;-77
2022/07/17 00:20:08;;;;;;;1.00;0.15;;;16.30;57.60;;;;;;5056352;28;20044;-77
2022/07/17 00:22:35;;;;;;;1.13;0.10;;;16.20;57.80;;;;;;5056192;28;20103;-77
2022/07/17 00:25:04;;;;;;;1.35;0.20;;;16.20;57.90;;;;;;5013892;28;20048;-77
2022/07/17 00:27:31;;;;;;;1.55;0.10;;;16.20;58.10;;;;;;5056597;28;20094;-77
2022/07/17 00:29:58;;;;;;;0.88;0.13;;;16.10;58.10;;;;;;5072845;28;20048;-77
2022/07/17 00:32:26;;;;;;;0.47;0.10;;;16.10;58.20;;;;;;5035951;28;20076;-77
2022/07/17 00:34:53;;;;;;;0.85;0.17;;;16.10;58.30;;;;;;5036424;28;20406;-77
2022/07/17 00:37:20;;;;;;;1.25;0.20;;;16.00;58.30;;;;;;5020327;28;20048;-77
2022/07/17 00:39:47;;;;;;;1.65;0.20;;;16.00;58.50;;;;;;5039642;28;20048;-77
2022/07/17 00:42:16;;;;;;;0.15;0.10;;;16.00;58.50;;;;;;5037334;28;20405;-77
2022/07/17 00:44:44;;;;;;;0.30;0.10;;;16.00;58.60;;;;;;5055767;28;20045;-77
2022/07/17 00:47:18;;;;;;;0.68;0.10;;;16.00;58.70;;;;;;5027543;28;20037;-77
2022/07/17 00:49:48;;;;;;;1.40;0.10;;;15.90;58.80;;;;;;5073842;28;20036;-77
2022/07/17 00:52:17;;;;;;;2.25;0.20;;;15.90;58.90;;;;;;5058437;28;20099;-77
2022/07/17 00:54:46;;;;;;;2.60;0.20;;;15.80;58.90;;;;;;5048535;28;20040;-77
2022/07/17 00:57:15;;;;;;;0.30;0.10;;;15.80;59.00;;;;;;5035879;28;20044;-77
2022/07/17 00:59:42;;;;;;;2.03;0.20;;;15.80;59.10;;;;;;5054949;28;20067;-77
2022/07/17 01:02:12;;;;;;;1.02;0.20;;;15.80;59.80;;;;;;5060925;28;20049;-77
2022/07/17 01:04:41;;;;;;;2.05;0.17;;;15.80;59.30;;;;;;5046008;28;20068;-77
2022/07/17 01:07:08;;;;;;;0.75;0.20;;;15.70;59.40;;;;;;5033710;28;20041;-77
2022/07/17 01:09:35;;;;;;;0.77;0.10;;;15.70;59.60;;;;;;5053721;28;20127;-77
2022/07/17 01:12:05;;;;;;;1.48;0.20;;;15.60;59.70;;;;;;5006763;28;20448;-77
2022/07/17 01:14:32;;;;;;;2.28;0.28;;;15.60;59.80;;;;;;5039268;28;20067;-77
2022/07/17 01:17:00;;;;;;;0.75;0.10;;;15.60;59.90;;;;;;5038652;28;20499;-77
2022/07/17 01:19:28;;;;;;;0.98;0.20;;;15.60;60.00;;;;;;5055764;28;20059;-76
2022/07/17 01:21:55;;;;;;;1.30;0.20;;;15.60;60.10;;;;;;5038254;28;20045;-75
2022/07/17 01:24:22;;;;;;;0.55;0.10;;;15.50;60.10;;;;;;5035352;28;20047;-76
2022/07/17 01:26:49;;;;;;;2.15;0.25;;;15.50;60.20;;;;;;5033013;28;20052;-76
2022/07/17 01:29:18;;;;;;;0.40;0.17;;;15.50;60.30;;;;;;5028154;28;20468;-76
2022/07/17 01:31:45;;;;;;;2.65;0.20;;;15.50;60.40;;;;;;5055031;28;20037;-76
2022/07/17 01:34:13;;;;;;;1.00;0.20;;;15.50;60.40;;;;;;5019667;28;20052;-76
2022/07/17 01:36:42;;;;;;;1.98;0.20;;;15.40;60.50;;;;;;5036695;28;20492;-76
2022/07/17 01:39:11;;;;;;;1.80;0.20;;;15.40;60.60;;;;;;5052986;28;20052;-76
2022/07/17 01:41:38;;;;;;;1.08;0.20;;;15.40;60.60;;;;;;5054777;28;20090;-76
2022/07/17 01:44:06;;;;;;;1.85;0.20;;;15.40;60.60;;;;;;5037520;28;20045;-76
2022/07/17 01:46:33;;;;;;;0.70;0.17;;;15.40;60.70;;;;;;5058600;28;20148;-76
2022/07/17 01:49:03;;;;;;;1.95;0.20;;;15.40;60.70;;;;;;5001108;28;20064;-76
2022/07/17 01:51:30;;;;;;;1.92;0.20;;;15.40;60.80;;;;;;5026429;28;20386;-76
2022/07/17 01:53:58;;;;;;;2.55;0.10;;;15.30;60.80;;;;;;5033746;28;20041;-76
2022/07/17 01:56:26;;;;;;;0.52;0.10;;;15.30;61.00;;;;;;5043380;28;20052;-76
2022/07/17 01:58:53;;;;;;;1.45;0.20;;;15.30;61.10;;;;;;5034026;28;20471;-76
2022/07/17 02:01:20;;;;;;;1.75;0.10;;;15.20;61.10;;;;;;5051951;28;20044;-76
2022/07/17 02:03:47;;;;;;;1.35;0.20;;;15.20;61.20;;;;;;5021844;28;20072;-76
2022/07/17 02:06:14;;;;;;;0.98;0.20;;;15.20;61.20;;;;;;5031306;28;20040;-76
2022/07/17 02:08:42;;;;;;;0.93;0.10;;;15.20;61.20;;;;;;5053423;28;20033;-77
2022/07/17 02:11:10;;;;;;;0.60;0.20;;;15.20;61.30;;;;;;5064984;28;20037;-77
2022/07/17 02:13:37;;;;;;;1.08;0.10;;;15.20;61.40;;;;;;5042887;28;20044;-77
2022/07/17 02:16:04;;;;;;;0.88;0.10;;;15.10;61.40;;;;;;5036061;28;20122;-77
2022/07/17 02:18:31;;;;;;;0.60;0.20;;;15.10;61.50;;;;;;5046053;28;20080;-77
2022/07/17 02:20:59;;;;;;;1.02;0.20;;;15.10;61.50;;;;;;5043186;28;20051;-77
2022/07/17 02:23:28;;;;;;;0.55;0.10;;;15.10;61.50;;;;;;5049315;28;20400;-77
2022/07/17 02:25:56;;;;;;;1.20;0.20;;;15.10;61.60;;;;;;5052778;28;20047;-77
2022/07/17 02:28:23;;;;;;;1.45;0.10;;;15.10;61.70;;;;;;5056707;28;20582;-77
2022/07/17 02:30:50;;;;;;;0.90;0.10;;;15.10;61.70;;;;;;5045101;28;20071;-77
2022/07/17 02:33:17;;;;;;;0.25;0.10;;;15.10;61.70;;;;;;5042037;28;20044;-76
2022/07/17 02:35:44;;;;;;;1.88;0.20;;;15.10;61.80;;;;;;5024840;28;20440;-76
2022/07/17 02:38:11;;;;;;;1.00;0.20;;;15.10;61.90;;;;;;5041595;28;20087;-76
2022/07/17 02:40:38;;;;;;;1.38;0.20;;;15.00;62.00;;;;;;5054405;28;20044;-76
2022/07/17 02:43:05;;;;;;;2.25;0.20;;;15.00;62.20;;;;;;5046702;28;20101;-76
2022/07/17 02:45:32;;;;;;;1.73;0.25;;;14.90;62.30;;;;;;5040931;28;20131;-76
2022/07/17 02:47:59;;;;;;;1.05;0.20;;;14.90;62.50;;;;;;5025175;28;20032;-76
2022/07/17 02:50:27;;;;;;;2.83;0.20;;;14.90;62.60;;;;;;5041369;28;20044;-76
2022/07/17 02:52:53;;;;;;;1.10;0.10;;;14.80;62.80;;;;;;5040394;28;20393;-76
2022/07/17 02:55:21;;;;;;;1.02;0.10;;;14.80;62.90;;;;;;5022010;28;20143;-76
2022/07/17 02:57:48;;;;;;;1.27;0.20;;;14.70;63.00;;;;;;5048101;28;20039;-76
2022/07/17 03:00:17;;;;;;;2.13;0.20;;;14.70;63.10;;;;;;5055828;28;20044;-77
2022/07/17 03:02:45;;;;;;;0.85;0.20;;;14.70;63.20;;;;;;5064038;28;20052;-77
2022/07/17 03:05:14;;;;;;;0.40;0.10;;;14.70;63.20;;;;;;5031221;28;20055;-77
2022/07/17 03:07:42;;;;;;;3.22;0.20;;;14.70;63.20;;;;;;5035833;28;20040;-75
2022/07/17 03:10:09;;;;;;;1.58;0.20;;;14.70;63.30;;;;;;5040641;28;20044;-77
2022/07/17 03:12:36;;;;;;;0.47;0.20;;;14.70;63.30;;;;;;5057054;28;20037;-77
2022/07/17 03:15:04;;;;;;;0.75;0.17;;;14.60;63.30;;;;;;5057640;28;20090;-77
2022/07/17 03:17:32;;;;;;;0.95;0.20;;;14.70;63.30;;;;;;5021998;28;20053;-77
2022/07/17 03:19:59;;;;;;;1.70;0.10;;;14.70;63.30;;;;;;5046826;28;20116;-77
2022/07/17 03:22:26;;;;;;;1.83;0.30;;;14.70;63.30;;;;;;5036952;28;20048;-77
2022/07/17 03:24:53;;;;;;;2.05;0.20;;;14.70;63.30;;;;;;5056585;28;20048;-77
2022/07/17 03:27:20;;;;;;;1.45;0.20;;;14.70;63.30;;;;;;5023766;28;20629;-77
2022/07/17 03:29:48;;;;;;;1.65;0.20;;;14.70;63.40;;;;;;5037105;28;20045;-77
2022/07/17 03:32:15;;;;;;;0.77;0.13;;;14.70;63.40;;;;;;5049486;28;20048;-77
2022/07/17 03:34:46;;;;;;;0.68;0.20;;;14.70;63.50;;;;;;5037912;28;20485;-77
2022/07/17 03:37:13;;;;;;;0.75;0.13;;;14.60;63.50;;;;;;5055914;28;20071;-78
2022/07/17 03:39:40;;;;;;;1.05;0.20;;;14.60;63.60;;;;;;5040470;28;20047;-78
2022/07/17 03:42:08;;;;;;;0.82;0.20;;;14.60;63.70;;;;;;5038140;28;20057;-77
2022/07/17 03:44:35;;;;;;;0.68;0.22;;;14.60;63.70;;;;;;5057119;28;20040;-77
2022/07/17 03:47:02;;;;;;;3.42;0.20;;;14.50;63.90;;;;;;5023384;28;20044;-77
2022/07/17 03:49:29;;;;;;;0.88;0.22;;;14.50;64.10;;;;;;5039933;28;20424;-77
2022/07/17 03:51:56;;;;;;;1.17;0.10;;;14.40;64.20;;;;;;5043531;28;20033;-77
2022/07/17 03:54:23;;;;;;;1.20;0.17;;;14.40;64.90;;;;;;5044354;28;20068;-77
2022/07/17 03:56:50;;;;;;;1.13;0.20;;;14.40;64.40;;;;;;5038595;28;20045;-77
2022/07/17 03:59:17;;;;;;;2.38;0.20;;;14.40;64.40;;;;;;5023328;28;20055;-77
2022/07/17 04:01:44;;;;;;;3.55;0.20;;;14.40;64.50;;;;;;5023199;28;20040;-77
2022/07/17 04:04:11;;;;;;;0.25;0.10;;;14.40;64.60;;;;;;5039950;28;20050;-77
2022/07/17 04:06:38;;;;;;;1.83;0.30;;;14.30;64.60;;;;;;5040021;28;20137;-77
2022/07/17 04:09:05;;;;;;;0.77;0.15;;;14.30;64.60;;;;;;5049508;28;20033;-78
2022/07/17 04:11:32;;;;;;;0.70;0.10;;;14.30;64.60;;;;;;5049146;28;20061;-78
2022/07/17 04:13:59;;;;;;;2.50;0.10;;;14.30;64.70;;;;;;5052626;28;20098;-77
2022/07/17 04:16:26;;;;;;;1.02;0.25;;;14.20;64.70;;;;;;5032470;28;20049;-77
2022/07/17 04:18:53;;;;;;;0.47;0.30;;;14.20;64.80;;;;;;5040169;28;20488;-77
2022/07/17 04:21:20;;;;;;;1.02;0.20;;;14.20;64.90;;;;;;5037328;28;20501;-78
2022/07/17 04:23:47;;;;;;;0.75;0.10;;;14.20;64.90;;;;;;5042835;28;20045;-77
2022/07/17 04:26:14;;;;;;;0.30;0.10;;;14.20;65.10;;;;;;5023453;28;20135;-78
2022/07/17 04:28:41;;;;;;;2.10;0.20;;;14.20;65.10;;;;;;5035860;28;20103;-78
2022/07/17 04:31:08;;;;;;;0.77;0.10;;;14.20;65.20;;;;;;5047818;28;20044;-77
2022/07/17 04:33:35;;;;;;;2.33;0.20;;;14.30;65.30;;;;;;5067010;28;20060;-77
2022/07/17 04:36:03;;;;;;;0.98;0.10;;;14.30;65.30;;;;;;5039445;28;20052;-77
2022/07/17 04:38:30;;;;;;;1.95;0.20;;;14.40;65.40;;;;;;5038822;28;20050;-77
2022/07/17 04:40:57;;;;;;;0.40;0.10;;;14.40;65.20;;;;;;5023494;28;20041;-77
2022/07/17 04:43:25;;;;;;;1.00;0.10;;;14.40;65.10;;;;;;5038757;28;20516;-77
2022/07/17 04:45:52;;;;;;;0.65;0.10;;;14.50;65.10;;;;;;5034589;28;20091;-77
2022/07/17 04:48:19;;;;;;;0.75;0.10;;;14.60;65.00;;;;;;5032521;28;20055;-77
2022/07/17 04:50:46;;;;;;;4.28;0.20;;;14.60;64.80;;;;;;5037700;28;20036;-78
2022/07/17 04:53:16;;;;;;;0.90;0.20;;;14.70;64.70;;;;;;5020164;28;20043;-77
2022/07/17 04:55:49;;;;;;;1.10;0.40;;;14.80;64.60;;;;;;5021938;28;20376;-77
2022/07/17 04:58:16;;;;;;;1.20;0.20;;;14.80;64.50;;;;;;5044146;28;20079;-77
2022/07/17 05:00:43;;;;;;;1.00;0.20;;;14.90;64.40;;;;;;5027156;28;20049;-77
2022/07/17 05:03:10;;;;;;;0.98;0.10;;;14.90;64.40;;;;;;4999966;28;20049;-77
2022/07/17 05:05:40;;;;;;;1.02;0.20;;;15.00;65.00;;;;;;5028833;28;20049;-78
2022/07/17 05:08:07;;;;;;;1.25;0.10;;;15.00;64.30;;;;;;5035941;28;20036;-78
2022/07/17 05:10:34;;;;;;;2.35;0.20;;;15.00;64.80;;;;;;5055146;28;20049;-77
2022/07/17 05:13:01;;;;;;;0.82;0.17;;;15.10;64.20;;;;;;5005746;28;20036;-77
2022/07/17 05:15:28;;;;;;;0.45;0.10;;;15.10;64.10;;;;;;5047130;28;20045;-77
2022/07/17 05:17:55;;;;;;;0.60;0.10;;;15.10;64.10;;;;;;5032283;28;20048;-77
2022/07/17 05:20:22;;;;;;;1.20;0.20;;;15.20;64.10;;;;;;5029533;28;20056;-77
2022/07/17 05:22:49;;;;;;;2.40;0.22;;;15.20;64.20;;;;;;5054319;28;20044;-77
2022/07/17 05:25:16;;;;;;;1.10;0.20;;;15.20;64.10;;;;;;5069966;28;20110;-77
2022/07/17 05:27:43;;;;;;;1.02;0.10;;;15.30;64.10;;;;;;5054014;28;20040;-77
2022/07/17 05:30:10;;;;;;;0.57;0.13;;;15.40;64.00;;;;;;5040012;28;20047;-77
2022/07/17 05:32:37;;;;;;;1.00;0.20;;;15.50;63.90;;;;;;5051744;28;20512;-77
2022/07/17 05:35:05;;;;;;;1.13;0.20;;;15.60;63.70;;;;;;5032671;28;20047;-77
2022/07/17 05:37:33;;;;;;;1.30;0.30;;;15.70;63.50;;;;;;5034931;28;20542;-76
2022/07/17 05:40:00;;;;;;;1.45;0.20;;;15.80;63.40;;;;;;5015156;28;20489;-77
2022/07/17 05:42:27;;;;;;;1.15;0.20;;;15.80;63.20;;;;;;5053527;28;20435;-77
2022/07/17 05:45:01;;;;;;;2.13;0.20;;;15.90;63.10;;;;;;5038401;28;20356;-78
2022/07/17 05:47:28;;;;;;;1.48;0.20;;;16.00;63.00;;;;;;5037400;28;20131;-78
2022/07/17 05:49:56;;;;;;;2.20;0.20;;;16.10;62.80;;;;;;5055986;28;20150;-77
2022/07/17 05:52:23;;;;;;;2.17;0.30;;;16.20;62.70;;;;;;5039328;28;20070;-78
2022/07/17 05:54:50;;;;;;;1.45;0.30;;;16.30;62.60;;;;;;5058382;28;20037;-78
2022/07/17 05:57:18;;;;;;;1.95;0.20;;;16.40;62.50;;;;;;5021713;28;20052;-77
2022/07/17 05:59:45;;;;;;;0.82;0.20;;;16.50;62.30;;;;;;5037226;28;20435;-78
2022/07/17 06:02:12;;;;;;;1.02;0.20;;;16.60;62.20;;;;;;5053319;28;20040;-77
2022/07/17 06:04:39;;;;;;;2.17;0.28;;;16.70;62.00;;;;;;5037758;28;20044;-77
2022/07/17 06:07:06;;;;;;;0.65;0.17;;;16.90;61.90;;;;;;5037299;28;20055;-76
2022/07/17 06:09:34;;;;;;;3.13;0.22;;;17.00;61.70;;;;;;5018467;28;20423;-77
2022/07/17 06:12:01;;;;;;;1.55;0.22;;;17.00;61.50;;;;;;5033029;28;20503;-77
2022/07/17 06:14:28;;;;;;;1.10;0.10;;;17.10;61.40;;;;;;5003468;28;20047;-78
2022/07/17 06:16:55;;;;;;;2.88;0.25;;;17.10;61.30;;;;;;5040988;28;20068;-76
2022/07/17 06:19:22;;;;;;;2.30;0.20;;;17.20;61.40;;;;;;5052463;28;20098;-76
2022/07/17 06:21:49;;;;;;;0.65;0.17;;;17.20;61.20;;;;;;5019008;28;20053;-76
2022/07/17 06:24:16;;;;;;;0.75;0.30;;;17.40;61.10;;;;;;5045863;28;20049;-76
2022/07/17 06:26:46;;;;;;;1.10;0.30;;;17.40;60.90;;;;;;5035156;28;20048;-77
2022/07/17 06:29:13;;;;;;;0.98;0.20;;;17.60;60.80;;;;;;5021646;28;20048;-77
2022/07/17 06:31:41;;;;;;;1.60;0.30;;;17.70;60.70;;;;;;5038940;28;20040;-77
2022/07/17 06:34:08;;;;;;;0.98;0.30;;;17.80;60.60;;;;;;5033572;28;20056;-77
2022/07/17 06:36:35;;;;;;;1.77;0.30;;;17.90;60.50;;;;;;5037339;28;20098;-77
2022/07/17 06:39:02;;;;;;;4.70;0.30;;;17.90;60.30;;;;;;5036952;28;20040;-77
2022/07/17 06:41:29;;;;;;;3.00;0.38;;;18.00;60.30;;;;;;5049937;28;20055;-76
2022/07/17 06:43:56;;;;;;;1.25;0.17;;;18.10;60.90;;;;;;5017921;28;21026;-78
2022/07/17 06:46:23;;;;;;;1.58;0.30;;;18.20;60.10;;;;;;5044473;28;20045;-79
2022/07/17 06:48:53;;;;;;;4.45;0.40;;;18.30;59.90;;;;;;5021303;28;20041;-78
2022/07/17 06:51:21;;;;;;;1.05;0.20;;;18.40;59.80;;;;;;5038126;28;20045;-77
2022/07/17 06:53:48;;;;;;;2.97;0.20;;;18.40;59.70;;;;;;5053534;28;20041;-78
2022/07/17 06:56:15;;;;;;;0.80;0.20;;;18.50;59.60;;;;;;5034431;28;20053;-78
2022/07/17 06:58:42;;;;;;;3.00;0.30;;;18.50;59.50;;;;;;5033843;28;20045;-78
2022/07/17 07:01:10;;;;;;;1.10;0.30;;;18.50;59.40;;;;;;5053594;28;20071;-79
2022/07/17 07:03:38;;;;;;;1.48;0.40;;;18.50;59.40;;;;;;5037341;28;20048;-79
2022/07/17 07:06:05;;;;;;;1.15;0.20;;;18.50;59.40;;;;;;5035873;28;20484;-80
2022/07/17 07:08:33;;;;;;;2.00;0.20;;;18.50;59.30;;;;;;5037330;28;20045;-78
2022/07/17 07:11:01;;;;;;;2.05;0.20;;;18.60;59.20;;;;;;5037941;28;20090;-79
2022/07/17 07:13:28;;;;;;;1.98;0.30;;;18.70;59.60;;;;;;5045025;28;20044;-79
2022/07/17 07:15:58;;;;;;;0.70;0.15;;;18.80;58.90;;;;;;5058149;28;20088;-79
2022/07/17 07:18:25;;;;;;;1.48;0.20;;;18.90;58.90;;;;;;5040706;28;20049;-78
2022/07/17 07:20:52;;;;;;;0.60;0.15;;;19.10;58.50;;;;;;5048810;28;20045;-79
2022/07/17 07:23:19;;;;;;;1.67;0.22;;;19.10;58.30;;;;;;5016470;28;20046;-78
2022/07/17 07:25:46;;;;;;;1.73;0.17;;;19.30;58.20;;;;;;5013960;28;20645;-78
2022/07/17 07:28:16;;;;;;;1.38;0.30;;;19.30;58.00;;;;;;5075146;28;20147;-79
2022/07/17 07:30:43;;;;;;;0.20;0.10;;;19.40;57.90;;;;;;5052834;28;20029;-78
2022/07/17 07:33:11;;;;;;;0.85;0.15;;;19.50;57.70;;;;;;5017434;28;20114;-79
2022/07/17 07:35:38;;;;;;;0.63;0.20;;;19.60;57.60;;;;;;5039942;28;20056;-79
2022/07/17 07:38:05;;;;;;;0.77;0.10;;;19.60;57.50;;;;;;5039952;28;20037;-79
2022/07/17 07:40:32;;;;;;;1.27;0.20;;;19.70;57.40;;;;;;5039410;28;20489;-78
2022/07/17 07:42:59;;;;;;;1.02;0.20;;;19.80;57.30;;;;;;5013861;28;20045;-79
2022/07/17 07:45:27;;;;;;;1.30;0.10;;;19.80;57.10;;;;;;5041676;28;20053;-79
2022/07/17 07:47:54;;;;;;;1.27;0.30;;;19.90;57.00;;;;;;5024384;28;20037;-77
2022/07/17 07:50:23;;;;;;;1.65;0.10;;;20.10;56.90;;;;;;5068609;28;20048;-77
2022/07/17 07:52:51;;;;;;;0.45;0.10;;;20.10;56.60;;;;;;5055779;28;20037;-77
2022/07/17 07:55:21;;;;;;;2.90;0.20;;;20.20;56.50;;;;;;5046275;28;20041;-77
2022/07/17 07:57:48;;;;;;;1.27;0.10;;;20.30;56.40;;;;;;5046838;28;20051;-77
2022/07/17 08:00:16;;;;;;;1.52;0.40;;;20.40;56.20;;;;;;5033222;28;20040;-77
2022/07/17 08:02:46;;;;;;;0.60;0.05;;;20.50;56.10;;;;;;5039680;28;20484;-77
2022/07/17 08:05:13;;;;;;;0.28;0.03;;;20.60;55.90;;;;;;5056139;28;20048;-77
2022/07/17 08:07:40;;;;;;;0.93;0.10;;;20.60;56.40;;;;;;5023521;28;20045;-76
2022/07/17 08:10:08;;;;;;;1.17;0.10;;;20.70;55.80;;;;;;5040039;28;20195;-77
2022/07/17 08:12:37;;;;;;;1.35;0.13;;;20.80;55.60;;;;;;5029522;28;20473;-77
2022/07/17 08:15:18;;;;;;;0.40;0.10;;;20.80;55.30;;;;;;5057859;28;20051;-77
2022/07/17 08:17:46;;;;;;;1.02;0.20;;;20.80;55.00;;;;;;5055861;28;20052;-78
2022/07/17 08:20:14;;;;;;;1.85;0.30;;;20.80;54.80;;;;;;5028171;28;20170;-79
2022/07/17 08:22:43;;;;;;;1.00;0.15;;;20.70;54.70;;;;;;5052066;28;20049;-78
2022/07/17 08:25:31;;;;;;;0.52;0.20;;;20.70;54.70;;;;;;5043861;28;20109;-79
2022/07/17 08:27:58;;;;;;;0.85;0.10;;;20.80;54.60;;;;;;5052601;28;20443;-77
2022/07/17 08:30:25;;;;;;;0.80;0.10;;;20.90;54.40;;;;;;5054591;28;20044;-76
2022/07/17 08:32:52;;;;;;;2.38;0.15;;;21.10;54.20;;;;;;5039127;28;20040;-75
2022/07/17 08:35:19;;;;;;;0.20;0.10;;;21.20;53.70;;;;;;5011846;28;20475;-76
2022/07/17 08:37:51;;;;;;;0.35;0.10;;;21.20;53.60;;;;;;5060284;28;20053;-76
2022/07/17 08:40:27;;;;;;;0.40;0.10;;;21.20;53.70;;;;;;5065949;28;20036;-77
2022/07/17 08:42:56;;;;;;;1.05;0.20;;;21.40;53.50;;;;;;5070932;28;20059;-79
2022/07/17 08:45:23;;;;;;;0.30;0.10;;;21.50;53.30;;;;;;5037925;28;20493;-79
2022/07/17 08:47:52;;;;;;;2.22;0.20;;;21.60;53.00;;;;;;5055725;28;20135;-78
2022/07/17 08:50:27;;;;;;;1.58;0.10;;;21.70;52.90;;;;;;5060208;28;20408;-79
2022/07/17 08:52:53;;;;;;;1.25;0.10;;;21.90;52.80;;;;;;5058049;28;20127;-77
2022/07/17 08:55:21;;;;;;;0.93;0.15;;;22.00;52.70;;;;;;5039884;28;20599;-77
2022/07/17 08:57:49;;;;;;;1.00;0.20;;;22.10;52.50;;;;;;5019821;28;20068;-79
2022/07/17 09:00:19;;;;;;;0.95;0.10;;;22.20;52.30;;;;;;5080334;28;20057;-79
2022/07/17 09:03:05;;;;;;;1.10;0.10;;;22.30;52.10;;;;;;5055265;28;20048;-78
2022/07/17 09:05:35;;;;;;;1.55;0.20;;;22.30;51.50;;;;;;5050069;28;20412;-79
2022/07/17 09:08:03;;;;;;;1.42;0.17;;;22.30;51.30;;;;;;5054556;28;20049;-76
2022/07/17 09:10:36;;;;;;;1.80;0.20;;;22.20;51.30;;;;;;5057598;28;20128;-77
2022/07/17 09:13:18;;;;;;;1.13;0.25;;;22.10;51.40;;;;;;5060016;28;20044;-77
2022/07/17 09:15:47;;;;;;;1.70;0.20;;;22.30;51.40;;;;;;5054829;28;20411;-76
2022/07/17 09:18:15;;;;;;;1.35;0.20;;;22.30;51.30;;;;;;5055368;28;20047;-77
2022/07/17 09:20:56;;;;;;;0.93;0.10;;;22.50;51.20;;;;;;5035228;28;20090;-77
2022/07/17 09:23:25;;;;;;;0.30;0.10;;;22.70;51.00;;;;;;5032110;28;20063;-77
2022/07/17 09:25:55;;;;;;;0.75;0.10;;;22.80;50.90;;;;;;5026856;28;20041;-77
2022/07/17 09:28:23;;;;;;;1.05;0.20;;;23.00;50.50;;;;;;5066312;28;20049;-76
2022/07/17 09:30:52;;;;;;;0.85;0.20;;;23.00;50.20;;;;;;5072476;28;20041;-77
2022/07/17 09:33:29;;;;;;;1.00;0.20;;;23.10;50.30;;;;;;5073494;28;20037;-78
2022/07/17 09:36:06;;;;;;;0.65;0.20;;;23.20;50.20;;;;;;5022698;28;20407;-79
2022/07/17 09:38:39;;;;;;;0.77;0.20;;;23.20;49.90;;;;;;5072955;28;20055;-76
2022/07/17 09:41:15;;;;;;;0.90;0.10;;;23.20;50.00;;;;;;5055592;28;20052;-78
2022/07/17 09:43:48;;;;;;;0.85;0.20;;;23.40;49.90;;;;;;5038576;28;20392;-80
2022/07/17 09:46:27;;;;;;;0.45;0.10;;;23.50;49.70;;;;;;5054776;28;20045;-81
2022/07/17 09:48:57;;;;;;;1.17;0.10;;;23.60;49.40;;;;;;5036396;28;20456;-81
2022/07/17 09:51:33;;;;;;;0.63;0.10;;;23.60;49.40;;;;;;5051903;28;20071;-80
2022/07/17 09:54:04;;;;;;;1.25;0.15;;;23.70;49.30;;;;;;5034164;28;20062;-77
2022/07/17 09:56:34;;;;;;;0.55;0.10;;;23.80;49.10;;;;;;5049221;28;20048;-77
2022/07/17 09:59:12;;;;;;;1.02;0.10;;;24.00;48.90;;;;;;5036769;28;20132;-77
2022/07/17 10:01:41;;;;;;;0.32;0.10;;;24.10;48.70;;;;;;5072339;28;20041;-78
2022/07/17 10:04:13;;;;;;;0.73;0.08;;;24.30;48.60;;;;;;5054187;28;20114;-76
2022/07/17 10:06:40;;;;;;;1.17;0.32;;;24.40;48.40;;;;;;5053040;28;20052;-77
2022/07/17 10:09:07;;;;;;;0.57;0.20;;;24.50;48.00;;;;;;5034407;28;20059;-77
2022/07/17 10:11:39;;;;;;;0.47;0.10;;;24.40;47.70;;;;;;5018036;28;20037;-77
2022/07/17 10:14:15;;;;;;;0.95;0.10;;;24.50;47.90;;;;;;5048043;28;20040;-77
2022/07/17 10:16:45;;;;;;;0.82;0.10;;;24.50;47.70;;;;;;5050943;28;20454;-77
2022/07/17 10:19:17;;;;;;;1.50;0.20;;;24.60;47.50;;;;;;5070120;28;20448;-75
2022/07/17 10:22:04;;;;;;;0.40;0.10;;;24.70;47.40;;;;;;5039176;28;20040;-76
2022/07/17 10:24:31;;;;;;;0.57;0.10;;;24.80;47.30;;;;;;5033326;28;20044;-76
2022/07/17 10:26:59;;;;;;;1.55;0.20;;;24.80;47.00;;;;;;5032694;28;20780;-76
2022/07/17 10:29:33;;;;;;;0.98;0.20;;;24.80;46.90;;;;;;5031541;28;20479;-77
2022/07/17 10:32:03;;;;;;;0.90;0.10;;;24.70;46.70;;;;;;5034669;28;20045;-76
2022/07/17 10:34:38;;;;;;;1.25;0.20;;;24.70;46.70;;;;;;5036732;28;20519;-76
2022/07/17 10:37:27;;;;;;;0.25;0.10;;;24.90;46.70;;;;;;5053093;28;20041;-76
2022/07/17 10:40:19;;;;;;;0.95;0.30;;;25.00;47.20;;;;;;5027184;28;20497;-77
2022/07/17 10:42:59;;;;;;;0.90;0.20;;;25.10;46.00;;;;;;5054612;28;20048;-77
2022/07/17 10:45:42;;;;;;;1.05;0.10;;;25.10;45.90;;;;;;5036754;28;20106;-78
2022/07/17 10:48:15;;;;;;;0.40;0.10;;;25.10;46.00;;;;;;5052816;28;20037;-77
2022/07/17 10:50:45;;;;;;;1.65;0.17;;;25.20;46.00;;;;;;5065031;28;20045;-76
2022/07/17 10:53:17;;;;;;;1.00;0.20;;;25.20;45.80;;;;;;5034327;28;20044;-77
2022/07/17 10:56:04;;;;;;;0.95;0.20;;;25.30;45.90;;;;;;5042514;28;20147;-78
2022/07/17 10:58:40;;;;;;;0.47;0.10;;;25.50;45.80;;;;;;5041527;28;20114;-77
2022/07/17 11:01:13;;;;;;;0.70;0.20;;;25.60;45.70;;;;;;5048335;28;20144;-76
2022/07/17 11:03:45;;;;;;;1.20;0.10;;;25.80;45.70;;;;;;5038437;28;20052;-79
2022/07/17 11:06:15;;;;;;;0.85;0.20;;;26.00;45.60;;;;;;5058176;28;20045;-79
2022/07/17 11:08:47;;;;;;;2.00;0.30;;;26.10;45.50;;;;;;5057855;28;20040;-77
2022/07/17 11:11:18;;;;;;;2.72;0.20;;;26.10;45.00;;;;;;5058228;28;20132;-77
2022/07/17 11:14:07;;;;;;;1.05;0.20;;;26.00;45.10;;;;;;5031444;28;20074;-78
2022/07/17 11:16:35;;;;;;;1.10;0.20;;;26.00;45.00;;;;;;5049093;28;20052;-78
2022/07/17 11:19:02;;;;;;;0.28;0.10;;;26.00;45.00;;;;;;5054533;28;20040;-77
2022/07/17 11:21:29;;;;;;;1.60;0.20;;;26.10;45.00;;;;;;5053300;28;20033;-79
2022/07/17 11:23:57;;;;;;;0.40;0.20;;;26.20;44.70;;;;;;5037044;28;20137;-79
2022/07/17 11:26:25;;;;;;;0.50;0.10;;;26.10;44.80;;;;;;5065334;28;20138;-77
2022/07/17 11:28:53;;;;;;;0.90;0.20;;;26.20;44.60;;;;;;5034522;28;20041;-77
2022/07/17 11:31:30;;;;;;;1.08;0.20;;;26.20;44.60;;;;;;5029013;28;20041;-77
2022/07/17 11:34:11;;;;;;;1.55;0.20;;;26.40;44.60;;;;;;5039813;28;20041;-77
2022/07/17 11:36:41;;;;;;;0.50;0.10;;;26.50;44.50;;;;;;5041666;28;20049;-77
2022/07/17 11:39:18;;;;;;;0.63;0.10;;;26.60;44.60;;;;;;5052559;28;20064;-79
2022/07/17 11:41:53;;;;;;;0.85;0.10;;;26.70;45.00;;;;;;5052567;28;20067;-78
2022/07/17 11:44:24;;;;;;;0.40;0.10;;;26.80;44.30;;;;;;5047252;28;20107;-80
2022/07/17 11:46:52;;;;;;;1.10;0.10;;;26.90;44.20;;;;;;5031349;28;20516;-78
2022/07/17 11:49:35;;;;;;;1.27;0.30;;;27.00;44.10;;;;;;5033987;28;20061;-77
2022/07/17 11:52:12;;;;;;;0.82;0.13;;;27.00;43.60;;;;;;5032808;28;20087;-81
2022/07/17 11:54:49;;;;;;;1.17;0.20;;;27.10;43.70;;;;;;5020875;28;20034;-77
2022/07/17 11:57:18;;;;;;;0.82;0.20;;;27.40;43.50;;;;;;5031581;28;20050;-79
2022/07/17 11:59:46;;;;;;;0.30;0.10;;;27.60;43.40;;;;;;5033227;28;20046;-79
2022/07/17 12:02:19;;;;;;;0.50;0.10;;;27.80;43.00;;;;;;5034860;28;20044;-81
2022/07/17 12:04:57;;;;;;;0.73;0.17;;;28.10;42.80;;;;;;5033760;28;20132;-78
2022/07/17 12:07:26;;;;;;;0.73;0.20;;;28.50;42.20;;;;;;5014672;28;20042;-78
2022/07/17 12:09:54;;;;;;;0.60;0.08;;;28.50;41.60;;;;;;5027482;28;20050;-79
2022/07/17 12:12:23;;;;;;;1.00;0.20;;;28.50;41.30;;;;;;5018627;28;20052;-79
2022/07/17 12:14:58;;;;;;;1.25;0.20;;;28.80;41.40;;;;;;5033685;28;20136;-80
2022/07/17 12:17:40;;;;;;;1.15;0.22;;;29.00;40.70;;;;;;5031312;28;20171;-80
2022/07/17 12:20:08;;;;;;;0.50;0.20;;;29.20;40.70;;;;;;5037186;28;20056;-79
2022/07/17 12:22:48;;;;;;;1.35;0.10;;;29.50;40.60;;;;;;5037024;28;20030;-79
2022/07/17 12:25:26;;;;;;;0.85;0.10;;;30.00;40.10;;;;;;5029795;28;20046;-82
2022/07/17 12:27:54;;;;;;;0.65;0.10;;;30.40;40.50;;;;;;5024060;28;20060;-80
2022/07/17 12:30:22;;;;;;;1.58;0.30;;;30.70;39.80;;;;;;5022619;28;20033;-82
2022/07/17 12:32:49;;;;;;;3.55;0.10;;;30.90;39.40;;;;;;5040506;28;20041;-81
2022/07/17 12:35:16;;;;;;;1.27;0.13;;;31.20;39.20;;;;;;5021534;28;20033;-77
2022/07/17 12:37:43;;;;;;;1.45;0.20;;;31.60;39.10;;;;;;5038441;28;20068;-80
2022/07/17 12:40:13;;;;;;;0.90;0.10;;;31.80;38.50;;;;;;5039922;28;20056;-81
2022/07/17 12:42:43;;;;;;;0.17;0.10;;;31.90;38.50;;;;;;5044134;28;20105;-83
2022/07/17 12:45:11;;;;;;;0.70;0.20;;;32.00;38.30;;;;;;5063584;28;20052;-79
2022/07/17 12:47:38;;;;;;;0.95;0.10;;;31.90;37.90;;;;;;5045137;28;20056;-81
2022/07/17 12:50:07;;;;;;;0.50;0.10;;;31.80;38.10;;;;;;5020344;28;20049;-82
2022/07/17 12:52:34;;;;;;;0.22;0.00;;;31.70;38.60;;;;;;5026814;28;20551;-82
2022/07/17 12:55:01;;;;;;;0.63;0.10;;;31.90;37.90;;;;;;5053098;28;20482;-79
2022/07/17 12:57:29;;;;;;;0.70;0.10;;;32.30;37.60;;;;;;5036647;28;20048;-79